createdAt,value
2019-02-15T00:00:07.371Z,-21210.95
2019-02-15T00:02:35.643Z,-21214.92
2019-02-15T00:05:04.156Z,-21214.92
2019-02-15T00:07:32.430Z,-21211.66
2019-02-15T00:10:00.728Z,-21203.58
2019-02-15T00:12:28.989Z,-21201.03
2019-02-15T00:14:57.249Z,-21202.44
2019-02-15T00:17:33.075Z,-21194.21
2019-02-15T00:20:03.201Z,-21203.15
2019-02-15T00:22:31.467Z,-21196.91
2019-02-15T00:24:59.754Z,-21204.00
2019-02-15T00:27:28.122Z,-21181.73
2019-02-15T00:29:56.456Z,-21204.57
2019-02-15T00:32:24.719Z,-21205.71
2019-02-15T00:34:53.006Z,-21199.89
2019-02-15T00:37:21.318Z,-21180.02
2019-02-15T00:39:49.548Z,-21195.77
2019-02-15T00:42:17.811Z,-21202.87
2019-02-15T00:44:46.160Z,-21207.83
2019-02-15T00:47:24.843Z,-21211.52
2019-02-15T00:49:54.901Z,-21210.25
2019-02-15T00:52:27.519Z,-21204.00
2019-02-15T00:55:00.436Z,-21200.60
2019-02-15T00:57:33.378Z,-21205.28
2019-02-15T01:00:19.381Z,-21215.49
2019-02-15T01:02:55.384Z,-21198.19
2019-02-15T01:05:25.356Z,-21211.38
2019-02-15T01:07:55.303Z,-21209.96
2019-02-15T01:10:25.346Z,-21215.63
2019-02-15T01:12:55.258Z,-21186.55
2019-02-15T01:15:23.964Z,-21204.43
2019-02-15T01:17:52.249Z,-21186.41
2019-02-15T01:20:20.586Z,-21213.22
2019-02-15T01:22:48.881Z,-21195.21
2019-02-15T01:25:17.252Z,-21183.00
2019-02-15T01:27:47.214Z,-21214.78
2019-02-15T01:30:29.487Z,-21208.83
2019-02-15T01:33:14.469Z,-21205.57
2019-02-15T01:35:44.476Z,-21205.42
2019-02-15T01:38:22.981Z,-21187.40
2019-02-15T01:41:04.564Z,-21205.85
2019-02-15T01:43:49.421Z,-21187.69
2019-02-15T01:46:21.867Z,-21200.88
2019-02-15T01:48:50.158Z,-21189.82
2019-02-15T01:51:18.515Z,-21198.47
2019-02-15T01:53:46.785Z,-21173.06
2019-02-15T01:56:15.144Z,-21169.65
2019-02-15T01:58:43.408Z,-21180.44
2019-02-15T02:01:13.502Z,-21178.31
2019-02-15T02:03:41.781Z,-21165.82
2019-02-15T02:06:10.051Z,-21169.65
2019-02-15T02:08:38.335Z,-21163.54
2019-02-15T02:11:06.612Z,-21162.12
2019-02-15T02:13:34.879Z,-21173.34
2019-02-15T02:16:03.240Z,-21164.82
2019-02-15T02:18:31.608Z,-21162.12
2019-02-15T02:21:00.075Z,-21164.39
2019-02-15T02:23:28.435Z,-21171.64
2019-02-15T02:25:56.877Z,-21181.15
2019-02-15T02:28:25.215Z,-21171.92
2019-02-15T02:30:53.494Z,-21170.50
2019-02-15T02:33:21.769Z,-21185.70
2019-02-15T02:35:50.067Z,-21185.27
2019-02-15T02:38:18.367Z,-21177.46
2019-02-15T02:40:46.652Z,-21180.44
2019-02-15T02:43:14.992Z,-21172.63
2019-02-15T02:45:43.313Z,-21178.31
2019-02-15T02:48:11.585Z,-21174.91
2019-02-15T02:50:39.894Z,-21181.15
2019-02-15T02:53:08.147Z,-21168.80
2019-02-15T02:55:36.435Z,-21175.61
2019-02-15T02:58:04.772Z,-21178.03
2019-02-15T03:00:33.912Z,-21186.41
2019-02-15T03:03:02.316Z,-21184.28
2019-02-15T03:05:30.596Z,-21181.15
2019-02-15T03:07:58.872Z,-21188.26
2019-02-15T03:10:27.164Z,-21183.00
2019-02-15T03:12:55.452Z,-21190.81
2019-02-15T03:15:23.764Z,-21192.51
2019-02-15T03:17:52.044Z,-21183.43
2019-02-15T03:20:30.380Z,-21236.75
2019-02-15T03:22:50.311Z,-21214.07
2019-02-15T03:25:18.603Z,-21177.46
2019-02-15T03:27:47.299Z,-21194.64
2019-02-15T03:30:15.752Z,-21198.89
2019-02-15T03:32:44.101Z,-21178.46
2019-02-15T03:35:12.367Z,-21178.88
2019-02-15T03:37:58.280Z,-21179.45
2019-02-15T03:40:28.305Z,-21177.04
2019-02-15T03:42:56.589Z,-21175.47
2019-02-15T03:45:24.889Z,-21195.63
2019-02-15T03:47:53.158Z,-21210.25
2019-02-15T03:50:21.442Z,-21215.78
2019-02-15T03:52:49.688Z,-21199.89
2019-02-15T03:55:17.956Z,-21118.74
2019-02-15T03:57:46.245Z,-21129.41
2019-02-15T04:00:14.717Z,-21125.86
2019-02-15T04:02:43.299Z,-21127.56
2019-02-15T04:05:11.657Z,-21184.85
2019-02-15T04:07:39.974Z,-21206.13
2019-02-15T04:10:09.217Z,-21210.10
2019-02-15T04:12:37.502Z,-21183.86
2019-02-15T04:15:07.379Z,-21156.15
2019-02-15T04:17:35.653Z,-21179.16
2019-02-15T04:20:06.087Z,-21182.72
2019-02-15T04:22:34.639Z,-21166.81
2019-02-15T04:25:03.095Z,-21162.69
2019-02-15T04:27:31.465Z,-21171.21
2019-02-15T04:29:59.899Z,-21162.83
2019-02-15T04:32:28.227Z,-21161.98
2019-02-15T04:34:56.626Z,-21168.94
2019-02-15T04:37:26.656Z,-21178.31
2019-02-15T04:39:54.987Z,-21176.18
2019-02-15T04:42:23.379Z,-21179.16
2019-02-15T04:44:51.695Z,-21158.71
2019-02-15T04:47:19.982Z,-21160.84
2019-02-15T04:49:48.292Z,-21163.54
2019-02-15T04:52:16.816Z,-21159.00
2019-02-15T04:54:45.484Z,-21156.29
2019-02-15T04:57:14.243Z,-21162.97
2019-02-15T04:59:42.478Z,-21157.57
2019-02-15T05:02:11.102Z,-21138.52
2019-02-15T05:04:39.443Z,-21154.59
2019-02-15T05:07:07.797Z,-21162.69
2019-02-15T05:09:36.078Z,-21151.89
2019-02-15T05:12:04.387Z,-21175.33
2019-02-15T05:14:32.725Z,-21169.23
2019-02-15T05:17:01.012Z,-21167.23
2019-02-15T05:19:29.286Z,-21176.04
2019-02-15T05:21:57.570Z,-21173.63
2019-02-15T05:24:25.869Z,-21165.10
2019-02-15T05:26:54.145Z,-21172.20
2019-02-15T05:29:22.515Z,-21152.32
2019-02-15T05:31:50.868Z,-21144.35
2019-02-15T05:34:19.387Z,-21144.64
2019-02-15T05:36:47.749Z,-21140.23
2019-02-15T05:39:16.069Z,-21143.93
2019-02-15T05:41:44.394Z,-21148.76
2019-02-15T05:44:12.672Z,-21165.68
2019-02-15T05:46:41.075Z,-21158.57
2019-02-15T05:49:09.400Z,-21168.37
2019-02-15T05:51:37.743Z,-21147.20
2019-02-15T05:54:06.131Z,-21158.00
2019-02-15T05:56:34.489Z,-21133.54
2019-02-15T05:59:02.755Z,-21140.23
2019-02-15T06:01:31.206Z,-21149.33
2019-02-15T06:03:59.487Z,-21151.89
2019-02-15T06:06:27.739Z,-21135.39
2019-02-15T06:08:56.090Z,-21131.98
2019-02-15T06:11:24.365Z,-21150.89
2019-02-15T06:13:52.776Z,-21141.93
2019-02-15T06:16:21.154Z,-21137.24
2019-02-15T06:18:49.459Z,-21125.43
2019-02-15T06:21:17.823Z,-21143.08
2019-02-15T06:23:46.061Z,-21132.68
2019-02-15T06:26:15.336Z,-21167.52
2019-02-15T06:28:43.621Z,-21146.91
2019-02-15T06:31:11.988Z,-21154.88
2019-02-15T06:33:40.255Z,-21153.30
2019-02-15T06:36:08.614Z,-21172.77
2019-02-15T06:38:36.876Z,-21156.44
2019-02-15T06:41:05.381Z,-21150.75
2019-02-15T06:43:33.735Z,-21140.66
2019-02-15T06:46:02.001Z,-21130.98
2019-02-15T06:48:30.387Z,-21139.23
2019-02-15T06:51:01.159Z,-21151.32
2019-02-15T06:53:29.424Z,-21164.68
2019-02-15T06:55:57.885Z,-21164.11
2019-02-15T06:58:26.172Z,-21159.70
2019-02-15T07:00:56.386Z,-21157.86
2019-02-15T07:03:30.328Z,-21161.70
2019-02-15T07:05:58.761Z,-21150.04
2019-02-15T07:08:27.260Z,-21159.28
2019-02-15T07:10:55.749Z,-21171.78
2019-02-15T07:13:24.206Z,-21177.60
2019-02-15T07:15:52.511Z,-21154.16
2019-02-15T07:18:20.767Z,-21155.58
2019-02-15T07:20:49.053Z,-21154.30
2019-02-15T07:23:17.365Z,-21158.42
2019-02-15T07:25:46.828Z,-21165.25
2019-02-15T07:28:15.138Z,-21160.13
2019-02-15T07:30:43.419Z,-21157.29
2019-02-15T07:33:11.716Z,-21168.94
2019-02-15T07:35:40.032Z,-21183.71
2019-02-15T07:38:08.352Z,-21178.88
2019-02-15T07:40:37.281Z,-21187.12
2019-02-15T07:43:05.592Z,-21188.54
2019-02-15T07:45:42.441Z,-21187.83
2019-02-15T07:48:03.881Z,-21182.72
2019-02-15T07:50:32.186Z,-21189.67
2019-02-15T07:53:00.461Z,-21197.20
2019-02-15T07:55:28.724Z,-21192.94
2019-02-15T07:57:57.015Z,-21182.58
2019-02-15T08:00:25.270Z,-21195.35
2019-02-15T08:02:53.566Z,-21200.32
2019-02-15T08:05:23.438Z,-21203.02
2019-02-15T08:07:51.918Z,-21207.13
2019-02-15T08:10:20.272Z,-21192.51
2019-02-15T08:12:48.679Z,-21195.92
2019-02-15T08:15:16.941Z,-21199.32
2019-02-15T08:17:45.221Z,-21207.55
2019-02-15T08:20:13.926Z,-21211.66
2019-02-15T08:22:42.199Z,-21219.04
2019-02-15T08:25:10.480Z,-21228.25
2019-02-15T08:27:38.733Z,-21223.71
2019-02-15T08:30:09.865Z,-21233.78
2019-02-15T08:32:38.138Z,-21229.38
2019-02-15T08:35:09.049Z,-21235.19
2019-02-15T08:37:37.316Z,-21232.07
2019-02-15T08:40:08.241Z,-21235.34
2019-02-15T08:42:36.501Z,-21229.52
2019-02-15T08:45:07.904Z,-21253.18
2019-02-15T08:47:39.670Z,-21250.91
2019-02-15T08:50:08.937Z,-21248.08
2019-02-15T08:52:37.326Z,-21241.85
2019-02-15T08:55:10.956Z,-21256.43
2019-02-15T08:57:39.234Z,-21258.28
2019-02-15T09:00:12.282Z,-21265.35
2019-02-15T09:02:40.545Z,-21265.35
2019-02-15T09:05:11.077Z,-21268.74
2019-02-15T09:07:39.343Z,-21285.99
2019-02-15T09:10:10.220Z,-21283.17
2019-02-15T09:12:38.509Z,-21288.26
2019-02-15T09:15:21.840Z,-21277.51
2019-02-15T09:17:50.145Z,-21270.86
2019-02-15T09:20:18.424Z,-21283.17
2019-02-15T09:22:46.712Z,-21296.17
2019-02-15T09:25:15.138Z,-21304.65
2019-02-15T09:27:45.058Z,-21287.84
2019-02-15T09:30:14.375Z,-21290.52
2019-02-15T09:32:42.647Z,-21303.52
2019-02-15T09:35:12.057Z,-21303.52
2019-02-15T09:37:40.395Z,-21307.61
2019-02-15T09:40:10.115Z,-21317.07
2019-02-15T09:42:38.410Z,-21314.81
2019-02-15T09:45:09.830Z,-21310.72
2019-02-15T09:47:38.111Z,-21322.02
2019-02-15T09:50:09.726Z,-21323.28
2019-02-15T09:52:39.036Z,-21324.13
2019-02-15T09:55:07.374Z,-21325.26
2019-02-15T09:57:35.655Z,-21302.39
2019-02-15T10:00:05.361Z,-21331.32
2019-02-15T10:02:33.622Z,-21342.32
2019-02-15T10:05:01.920Z,-21344.72
2019-02-15T10:07:30.183Z,-21348.25
2019-02-15T10:09:58.446Z,-21352.33
2019-02-15T10:12:26.759Z,-21352.62
2019-02-15T10:14:55.029Z,-21351.35
2019-02-15T10:17:23.298Z,-21345.57
2019-02-15T10:19:51.579Z,-21357.41
2019-02-15T10:22:20.620Z,-21374.31
2019-02-15T10:24:48.907Z,-21381.63
2019-02-15T10:27:17.170Z,-21383.74
2019-02-15T10:29:45.473Z,-21381.77
2019-02-15T10:32:13.757Z,-21383.18
2019-02-15T10:34:42.019Z,-21393.16
2019-02-15T10:37:10.327Z,-21392.74
2019-02-15T10:39:38.613Z,-21387.96
2019-02-15T10:42:06.991Z,-21382.90
2019-02-15T10:44:35.292Z,-21394.85
2019-02-15T10:47:03.563Z,-21399.07
2019-02-15T10:49:31.826Z,-21397.95
2019-02-15T10:52:00.117Z,-21390.49
2019-02-15T10:54:28.407Z,-21395.41
2019-02-15T10:56:56.671Z,-21384.72
2019-02-15T10:59:24.965Z,-21370.64
2019-02-15T11:01:53.264Z,-21376.56
2019-02-15T11:04:21.535Z,-21379.09
2019-02-15T11:06:49.854Z,-21376.56
2019-02-15T11:09:18.137Z,-21365.43
2019-02-15T11:11:46.424Z,-21378.82
2019-02-15T11:14:16.470Z,-21352.90
2019-02-15T11:16:47.272Z,-21374.31
2019-02-15T11:19:14.900Z,-21373.04
2019-02-15T11:21:43.194Z,-21374.31
2019-02-15T11:24:11.478Z,-21362.76
2019-02-15T11:26:39.890Z,-21357.97
2019-02-15T11:29:08.166Z,-21376.70
2019-02-15T11:31:36.440Z,-21376.70
2019-02-15T11:34:04.804Z,-21371.78
2019-02-15T11:36:33.059Z,-21372.90
2019-02-15T11:39:01.336Z,-21386.83
2019-02-15T11:41:29.625Z,-21376.14
2019-02-15T11:43:57.894Z,-21373.33
2019-02-15T11:46:26.166Z,-21376.42
2019-02-15T11:48:54.440Z,-21412.14
2019-02-15T11:51:22.705Z,-21409.90
2019-02-15T11:53:50.974Z,-21416.22
2019-02-15T11:56:19.236Z,-21431.39
2019-02-15T11:58:47.510Z,-21453.98
2019-02-15T12:01:15.813Z,-21477.11
2019-02-15T12:03:44.045Z,-21508.61
2019-02-15T12:06:12.308Z,-21501.75
2019-02-15T12:08:40.658Z,-21548.43
2019-02-15T12:11:10.999Z,-21582.32
2019-02-15T12:13:39.949Z,-21567.41
2019-02-15T12:16:12.921Z,-21566.57
2019-02-15T12:18:42.848Z,-21581.75
2019-02-15T12:21:11.227Z,-21574.93
2019-02-15T12:23:39.532Z,-21590.96
2019-02-15T12:26:07.811Z,-21599.72
2019-02-15T12:28:36.097Z,-21613.64
2019-02-15T12:31:04.601Z,-21582.46
2019-02-15T12:33:32.871Z,-21633.93
2019-02-15T12:36:01.185Z,-21639.64
2019-02-15T12:38:29.474Z,-21645.19
2019-02-15T12:40:57.806Z,-21674.88
2019-02-15T12:43:26.116Z,-21679.45
2019-02-15T12:45:54.393Z,-21678.21
2019-02-15T12:48:22.656Z,-21683.19
2019-02-15T12:50:50.916Z,-21699.54
2019-02-15T12:53:19.203Z,-21691.09
2019-02-15T12:55:47.498Z,-21692.47
2019-02-15T12:58:15.784Z,-21696.77
2019-02-15T13:00:44.140Z,-21696.35
2019-02-15T13:03:12.401Z,-21712.68
2019-02-15T13:05:40.691Z,-21703.96
2019-02-15T13:08:08.979Z,-21689.29
2019-02-15T13:10:38.901Z,-21715.31
2019-02-15T13:13:07.179Z,-21699.54
2019-02-15T13:15:35.469Z,-21690.54
2019-02-15T13:18:03.732Z,-21727.75
2019-02-15T13:20:31.993Z,-21704.52
2019-02-15T13:23:00.277Z,-21735.63
2019-02-15T13:25:36.559Z,-21756.06
2019-02-15T13:27:58.558Z,-21746.96
2019-02-15T13:30:26.805Z,-21745.16
2019-02-15T13:32:55.110Z,-21734.39
2019-02-15T13:35:24.388Z,-21710.33
2019-02-15T13:37:52.677Z,-21689.43
2019-02-15T13:40:20.924Z,-21679.04
2019-02-15T13:42:49.262Z,-21691.37
2019-02-15T13:45:17.594Z,-21692.47
2019-02-15T13:47:45.871Z,-21736.32
2019-02-15T13:50:15.480Z,-21760.06
2019-02-15T13:52:43.768Z,-21751.09
2019-02-15T13:55:12.021Z,-21716.56
2019-02-15T13:57:40.299Z,-21731.63
2019-02-15T14:00:12.755Z,-21735.63
2019-02-15T14:02:41.025Z,-21741.43
2019-02-15T14:05:11.139Z,-21792.31
2019-02-15T14:07:39.495Z,-21771.23
2019-02-15T14:10:10.310Z,-21760.06
2019-02-15T14:12:38.738Z,-21756.89
2019-02-15T14:15:08.560Z,-21747.64
2019-02-15T14:17:44.252Z,-21729.82
2019-02-15T14:20:13.846Z,-21781.98
2019-02-15T14:22:42.209Z,-21744.74
2019-02-15T14:25:13.039Z,-21761.72
2019-02-15T14:27:41.325Z,-21750.82
2019-02-15T14:30:13.990Z,-21736.46
2019-02-15T14:32:42.378Z,-21788.60
2019-02-15T14:35:14.191Z,-21771.09
2019-02-15T14:37:42.564Z,-21760.34
2019-02-15T14:40:14.446Z,-21731.91
2019-02-15T14:42:42.707Z,-21738.25
2019-02-15T14:45:12.472Z,-21721.81
2019-02-15T14:47:40.812Z,-21754.13
2019-02-15T14:50:10.294Z,-21703.69
2019-02-15T14:52:38.550Z,-21717.95
2019-02-15T14:55:10.753Z,-21704.25
2019-02-15T14:57:39.014Z,-21721.26
2019-02-15T15:00:10.185Z,-21738.67
2019-02-15T15:02:38.455Z,-21707.98
2019-02-15T15:05:07.456Z,-21702.86
2019-02-15T15:07:35.748Z,-21650.05
2019-02-15T15:10:05.853Z,-21585.52
2019-02-15T15:12:34.129Z,-21576.74
2019-02-15T15:15:02.457Z,-21578.84
2019-02-15T15:17:30.757Z,-21568.38
2019-02-15T15:19:59.171Z,-21554.99
2019-02-15T15:22:27.454Z,-21551.92
2019-02-15T15:24:55.707Z,-21534.46
2019-02-15T15:27:23.960Z,-21514.48
2019-02-15T15:29:52.244Z,-21513.78
2019-02-15T15:32:20.555Z,-21516.58
2019-02-15T15:34:48.854Z,-21526.22
2019-02-15T15:37:17.128Z,-21505.95
2019-02-15T15:39:45.403Z,-21500.78
2019-02-15T15:42:13.677Z,-21511.41
2019-02-15T15:44:41.944Z,-21520.63
2019-02-15T15:47:10.298Z,-21489.72
2019-02-15T15:49:38.569Z,-21490.28
2019-02-15T15:52:06.887Z,-21490.00
2019-02-15T15:54:35.152Z,-21466.75
2019-02-15T15:57:03.435Z,-21473.05
2019-02-15T15:59:31.696Z,-21482.01
2019-02-15T16:01:59.993Z,-21500.78
2019-02-15T16:04:28.258Z,-21475.15
2019-02-15T16:06:56.542Z,-21473.47
2019-02-15T16:09:24.801Z,-21484.82
2019-02-15T16:11:53.138Z,-21474.17
2019-02-15T16:14:21.433Z,-21468.84
2019-02-15T16:16:49.692Z,-21480.75
2019-02-15T16:19:17.974Z,-21463.38
2019-02-15T16:21:46.266Z,-21465.76
2019-02-15T16:24:14.519Z,-21455.95
2019-02-15T16:26:42.853Z,-21456.79
2019-02-15T16:29:11.065Z,-21452.44
2019-02-15T16:31:39.346Z,-21450.90
2019-02-15T16:34:07.582Z,-21439.53
2019-02-15T16:36:35.880Z,-21453.98
2019-02-15T16:39:05.083Z,-21442.62
2019-02-15T16:41:33.367Z,-21426.20
2019-02-15T16:44:01.634Z,-21449.92
2019-02-15T16:46:29.904Z,-21440.38
2019-02-15T16:48:58.162Z,-21422.82
2019-02-15T16:51:26.452Z,-21440.23
2019-02-15T16:53:54.735Z,-21437.71
2019-02-15T16:56:23.006Z,-21444.73
2019-02-15T16:58:51.266Z,-21439.53
2019-02-15T17:01:19.550Z,-21438.27
2019-02-15T17:03:48.083Z,-21424.37
2019-02-15T17:06:16.516Z,-21420.71
2019-02-15T17:08:44.802Z,-21418.32
2019-02-15T17:11:13.067Z,-21420.71
2019-02-15T17:13:41.352Z,-21409.48
2019-02-15T17:16:09.655Z,-21389.51
2019-02-15T17:18:37.916Z,-21381.07
2019-02-15T17:21:07.050Z,-21383.46
2019-02-15T17:23:35.386Z,-21398.51
2019-02-15T17:26:03.676Z,-21389.65
2019-02-15T17:28:31.962Z,-21397.11
2019-02-15T17:31:00.264Z,-21396.96
2019-02-15T17:33:28.534Z,-21388.66
2019-02-15T17:35:56.824Z,-21387.25
2019-02-15T17:38:25.119Z,-21385.85
2019-02-15T17:40:53.407Z,-21390.63
2019-02-15T17:43:21.705Z,-21378.39
2019-02-15T17:45:50.061Z,-21393.16
2019-02-15T17:48:18.344Z,-21394.01
2019-02-15T17:50:46.618Z,-21366.42
2019-02-15T17:53:14.926Z,-21373.61
2019-02-15T17:55:43.263Z,-21373.33
2019-02-15T17:58:11.594Z,-21377.97
2019-02-15T18:00:39.866Z,-21364.17
2019-02-15T18:03:08.143Z,-21366.14
2019-02-15T18:05:36.440Z,-21371.63
2019-02-15T18:08:04.730Z,-21366.42
2019-02-15T18:10:33.028Z,-21371.63
2019-02-15T18:13:01.271Z,-21367.55
2019-02-15T18:15:29.578Z,-21352.05
2019-02-15T18:17:57.847Z,-21345.57
2019-02-15T18:20:26.115Z,-21348.67
2019-02-15T18:22:54.428Z,-21343.73
2019-02-15T18:25:22.801Z,-21358.82
2019-02-15T18:27:51.096Z,-21338.09
2019-02-15T18:30:19.377Z,-21354.45
2019-02-15T18:32:47.658Z,-21361.63
2019-02-15T18:35:15.937Z,-21365.86
2019-02-15T18:37:44.232Z,-21361.35
2019-02-15T18:40:12.520Z,-21351.77
2019-02-15T18:42:40.829Z,-21357.69
2019-02-15T18:45:16.367Z,-21353.04
2019-02-15T18:47:44.658Z,-21352.48
2019-02-15T18:50:13.177Z,-21356.00
2019-02-15T18:52:41.479Z,-21349.80
2019-02-15T18:55:10.813Z,-21352.62
2019-02-15T18:57:39.091Z,-21350.93
2019-02-15T19:00:10.263Z,-21355.02
2019-02-15T19:02:38.568Z,-21341.62
2019-02-15T19:05:09.784Z,-21343.87
2019-02-15T19:07:38.075Z,-21335.98
2019-02-15T19:10:12.131Z,-21329.07
2019-02-15T19:12:40.386Z,-21350.08
2019-02-15T19:15:11.825Z,-21352.90
2019-02-15T19:17:40.107Z,-21351.49
2019-02-15T19:20:11.056Z,-21339.79
2019-02-15T19:22:39.404Z,-21332.03
2019-02-15T19:25:10.628Z,-21319.61
2019-02-15T19:27:38.905Z,-21328.08
2019-02-15T19:30:16.205Z,-21334.71
2019-02-15T19:32:44.665Z,-21313.40
2019-02-15T19:35:12.977Z,-21338.52
2019-02-15T19:37:41.266Z,-21332.03
2019-02-15T19:40:12.939Z,-21339.64
2019-02-15T19:42:42.774Z,-21329.91
2019-02-15T19:45:12.210Z,-21324.83
2019-02-15T19:47:40.511Z,-21342.75
2019-02-15T19:50:12.042Z,-21333.86
2019-02-15T19:52:40.726Z,-21339.08
2019-02-15T19:55:10.350Z,-21341.05
2019-02-15T19:57:38.642Z,-21333.02
2019-02-15T20:00:20.522Z,-21340.21
2019-02-15T20:02:48.816Z,-21336.12
2019-02-15T20:05:17.189Z,-21333.30
2019-02-15T20:07:45.500Z,-21316.79
2019-02-15T20:10:16.371Z,-21318.06
2019-02-15T20:12:44.661Z,-21318.77
2019-02-15T20:15:14.106Z,-21316.64
2019-02-15T20:17:42.386Z,-21317.92
2019-02-15T20:20:15.197Z,-21310.15
2019-02-15T20:22:43.446Z,-21311.42
2019-02-15T20:25:13.061Z,-21313.26
2019-02-15T20:27:41.350Z,-21326.25
2019-02-15T20:30:15.151Z,-21326.95
2019-02-15T20:32:43.490Z,-21328.36
2019-02-15T20:35:13.600Z,-21322.58
2019-02-15T20:37:42.302Z,-21328.22
2019-02-15T20:40:12.467Z,-21343.45
2019-02-15T20:42:41.640Z,-21323.71
2019-02-15T20:45:13.181Z,-21319.48
2019-02-15T20:47:41.548Z,-21330.48
2019-02-15T20:50:11.259Z,-21317.50
2019-02-15T20:52:39.536Z,-21330.62
2019-02-15T20:55:13.779Z,-21335.70
2019-02-15T20:57:42.054Z,-21333.58
2019-02-15T21:00:13.430Z,-21328.79
2019-02-15T21:02:41.730Z,-21335.13
2019-02-15T21:05:10.783Z,-21322.44
2019-02-15T21:07:39.066Z,-21307.89
2019-02-15T21:10:12.694Z,-21320.74
2019-02-15T21:12:40.984Z,-21321.88
2019-02-15T21:15:11.506Z,-21330.76
2019-02-15T21:17:39.776Z,-21319.75
2019-02-15T21:20:13.238Z,-21322.29
2019-02-15T21:22:41.534Z,-21317.07
2019-02-15T21:25:16.793Z,-21329.07
2019-02-15T21:27:45.083Z,-21319.05
2019-02-15T21:30:17.754Z,-21318.63
2019-02-15T21:32:46.068Z,-21315.38
2019-02-15T21:35:14.571Z,-21305.92
2019-02-15T21:37:42.925Z,-21306.05
2019-02-15T21:40:20.133Z,-21302.95
2019-02-15T21:42:48.425Z,-21305.07
2019-02-15T21:45:16.692Z,-21286.70
2019-02-15T21:47:44.950Z,-21296.73
2019-02-15T21:50:17.256Z,-21306.20
2019-02-15T21:52:44.573Z,-21299.99
2019-02-15T21:55:39.116Z,-21310.43
2019-02-15T21:58:07.490Z,-21316.22
2019-02-15T22:00:35.759Z,-21314.81
2019-02-15T22:03:04.179Z,-21316.64
2019-02-15T22:05:32.439Z,-21284.86
2019-02-15T22:08:00.720Z,-21292.78
2019-02-15T22:10:29.053Z,-21290.10
2019-02-15T22:12:57.439Z,-21284.15
2019-02-15T22:15:25.762Z,-21283.59
2019-02-15T22:17:54.110Z,-21281.61
2019-02-15T22:20:26.620Z,-21292.78
2019-02-15T22:22:52.483Z,-21284.58
2019-02-15T22:25:20.794Z,-21302.81
2019-02-15T22:27:49.082Z,-21298.01
2019-02-15T22:30:18.697Z,-21281.47
2019-02-15T22:32:47.049Z,-21292.07
2019-02-15T22:35:15.326Z,-21290.23
2019-02-15T22:37:43.621Z,-21299.14
2019-02-15T22:40:26.176Z,-21313.68
2019-02-15T22:42:54.474Z,-21298.15
2019-02-15T22:45:22.747Z,-21284.86
2019-02-15T22:47:51.010Z,-21266.91
2019-02-15T22:50:19.309Z,-21275.68
2019-02-15T22:52:47.582Z,-21291.79
2019-02-15T22:55:15.885Z,-21271.01
2019-02-15T22:57:44.225Z,-21283.88
2019-02-15T23:00:40.458Z,-21285.43
2019-02-15T23:03:08.800Z,-21287.98
2019-02-15T23:05:37.140Z,-21300.55
2019-02-15T23:08:05.430Z,-21259.97
2019-02-15T23:10:33.715Z,-21258.13
2019-02-15T23:13:02.032Z,-21273.13
2019-02-15T23:15:30.303Z,-21283.45
2019-02-15T23:17:58.580Z,-21284.86
2019-02-15T23:20:26.845Z,-21288.96
2019-02-15T23:22:55.193Z,-21259.83
2019-02-15T23:25:25.036Z,-21251.62
2019-02-15T23:27:53.445Z,-21244.40
2019-02-15T23:30:21.845Z,-21263.65
2019-02-15T23:32:50.215Z,-21255.30
2019-02-15T23:35:18.505Z,-21244.68
2019-02-15T23:37:46.766Z,-21262.80
2019-02-15T23:40:15.053Z,-21267.75
2019-02-15T23:42:43.309Z,-21276.24
2019-02-15T23:45:11.675Z,-21269.31
2019-02-15T23:47:39.961Z,-21259.97
2019-02-15T23:50:09.504Z,-21243.26
2019-02-15T23:52:37.776Z,-21239.87
2019-02-15T23:55:06.339Z,-21246.52
2019-02-15T23:57:34.602Z,-21231.37
